createdAt,value
2023-05-19T00:00:28.642Z,7.97
2023-05-19T00:05:31.237Z,10.05
2023-05-19T00:10:33.291Z,6.57
2023-05-19T00:15:35.412Z,8.35
2023-05-19T00:20:38.057Z,9.10
2023-05-19T00:25:39.506Z,9.88
2023-05-19T00:30:40.960Z,8.63
2023-05-19T00:35:42.414Z,8.13
2023-05-19T00:40:43.987Z,6.80
2023-05-19T00:45:46.892Z,5.57
2023-05-19T00:50:50.273Z,10.80
2023-05-19T00:55:51.840Z,11.45
2023-05-19T01:00:55.964Z,6.78
2023-05-19T01:06:01.610Z,9.00
2023-05-19T01:11:03.887Z,6.78
2023-05-19T01:16:13.113Z,8.93
2023-05-19T01:21:31.451Z,8.75
2023-05-19T01:27:00.669Z,8.43
2023-05-19T01:32:04.868Z,7.05
2023-05-19T01:37:07.976Z,9.57
2023-05-19T01:42:09.675Z,8.40
2023-05-19T01:47:11.605Z,6.82
2023-05-19T01:52:13.182Z,9.45
2023-05-19T01:57:43.230Z,7.50
2023-05-19T02:02:56.717Z,8.65
2023-05-19T02:08:06.304Z,9.70
2023-05-19T02:13:11.268Z,11.13
2023-05-19T02:18:17.946Z,7.90
2023-05-19T02:23:19.403Z,10.15
2023-05-19T02:28:20.947Z,8.63
2023-05-19T02:33:24.699Z,8.90
2023-05-19T02:38:26.807Z,6.70
2023-05-19T02:43:30.608Z,9.32
2023-05-19T02:48:32.070Z,9.93
2023-05-19T02:53:33.589Z,7.90
2023-05-19T02:58:35.136Z,9.00
2023-05-19T03:03:36.798Z,9.27
2023-05-19T03:08:40.751Z,8.52
2023-05-19T03:13:43.690Z,8.32
2023-05-19T03:18:45.948Z,8.05
2023-05-19T03:23:47.518Z,8.98
2023-05-19T03:28:49.022Z,7.95
2023-05-19T03:33:50.723Z,9.77
2023-05-19T03:38:52.227Z,9.82
2023-05-19T03:43:53.723Z,6.78
2023-05-19T03:48:55.453Z,10.05
2023-05-19T03:53:57.196Z,8.48
2023-05-19T03:58:59.429Z,9.73
2023-05-19T04:04:00.947Z,13.48
2023-05-19T04:09:04.523Z,11.32
2023-05-19T04:14:06.595Z,10.80
2023-05-19T04:19:08.185Z,13.10
2023-05-19T04:24:09.777Z,8.40
2023-05-19T04:29:13.850Z,11.13
2023-05-19T04:34:15.304Z,7.50
2023-05-19T04:39:16.813Z,7.90
2023-05-19T04:44:19.192Z,8.13
2023-05-19T04:49:20.777Z,8.10
2023-05-19T04:54:22.259Z,8.55
2023-05-19T04:59:23.718Z,7.93
2023-05-19T05:04:25.970Z,7.80
2023-05-19T05:09:27.442Z,11.80
2023-05-19T05:14:29.308Z,7.47
2023-05-19T05:19:31.481Z,7.50
2023-05-19T05:24:33.279Z,6.55
2023-05-19T05:29:34.789Z,8.05
2023-05-19T05:34:38.088Z,7.18
2023-05-19T05:39:39.543Z,7.82
2023-05-19T05:44:41.106Z,4.90
2023-05-19T05:49:43.922Z,7.03
2023-05-19T05:54:46.331Z,7.22
2023-05-19T05:59:47.828Z,6.88
2023-05-19T06:04:49.356Z,6.60
2023-05-19T06:09:50.790Z,7.03
2023-05-19T06:14:52.361Z,6.05
2023-05-19T06:19:54.347Z,9.18
2023-05-19T06:24:55.916Z,6.00
2023-05-19T06:29:57.430Z,7.40
2023-05-19T06:34:58.941Z,5.72
2023-05-19T06:40:00.474Z,8.05
2023-05-19T06:45:02.079Z,8.30
2023-05-19T06:50:03.831Z,8.02
2023-05-19T06:55:05.973Z,8.23
2023-05-19T07:00:13.349Z,7.28
2023-05-19T07:05:16.106Z,8.25
2023-05-19T07:10:17.949Z,8.63
2023-05-19T07:15:19.501Z,6.35
2023-05-19T07:20:20.991Z,8.00
2023-05-19T07:25:22.499Z,10.65
2023-05-19T07:30:24.021Z,6.72
2023-05-19T07:35:26.301Z,5.05
2023-05-19T07:40:27.749Z,5.47
2023-05-19T07:45:29.421Z,9.88
2023-05-19T07:50:31.052Z,5.78
2023-05-19T07:55:32.601Z,6.18
2023-05-19T08:00:34.313Z,5.43
2023-05-19T08:05:36.405Z,5.68
2023-05-19T08:10:37.884Z,6.28
2023-05-19T08:15:39.476Z,5.85
2023-05-19T08:20:41.029Z,4.22
2023-05-19T08:25:42.524Z,7.03
2023-05-19T08:30:43.972Z,5.50
2023-05-19T08:35:45.508Z,6.65
2023-05-19T08:40:48.406Z,4.95
2023-05-19T08:45:50.377Z,5.30
2023-05-19T08:51:17.860Z,4.75
2023-05-19T08:56:25.150Z,5.00
2023-05-19T09:01:28.903Z,4.40
2023-05-19T09:06:33.353Z,5.28
2023-05-19T09:11:37.521Z,6.88
2023-05-19T09:16:39.340Z,6.15
2023-05-19T09:21:41.395Z,6.07
2023-05-19T09:26:43.055Z,5.82
2023-05-19T09:31:52.605Z,6.15
2023-05-19T09:36:54.366Z,4.68
2023-05-19T09:41:58.505Z,4.47
2023-05-19T09:47:00.078Z,5.80
2023-05-19T09:52:05.864Z,7.07
2023-05-19T09:57:08.579Z,5.95
2023-05-19T10:02:21.299Z,7.95
2023-05-19T10:07:24.163Z,5.78
2023-05-19T10:12:26.794Z,5.30
2023-05-19T10:17:28.878Z,6.47
2023-05-19T10:22:30.513Z,9.32
2023-05-19T10:27:34.996Z,9.50
2023-05-19T10:32:39.383Z,8.52
2023-05-19T10:37:51.192Z,7.93
2023-05-19T10:43:37.166Z,12.32
2023-05-19T10:48:38.692Z,11.85
2023-05-19T10:53:46.441Z,11.18
2023-05-19T10:58:52.145Z,9.50
2023-05-19T11:03:57.644Z,9.27
2023-05-19T11:09:20.937Z,10.25
2023-05-19T11:14:27.596Z,10.45
2023-05-19T11:19:31.281Z,9.13
2023-05-19T11:24:40.623Z,6.80
2023-05-19T11:29:42.616Z,12.07
2023-05-19T11:34:45.834Z,9.20
2023-05-19T11:39:47.839Z,11.35
2023-05-19T11:44:49.580Z,7.65
2023-05-19T11:49:54.911Z,11.05
2023-05-19T11:55:01.560Z,8.68
2023-05-19T12:00:08.994Z,9.05
2023-05-19T12:05:18.704Z,8.38
2023-05-19T12:10:27.896Z,11.20
2023-05-19T12:15:29.401Z,8.80
2023-05-19T12:20:36.039Z,9.10
2023-05-19T12:25:38.485Z,10.90
2023-05-19T12:30:40.113Z,10.93
2023-05-19T12:35:42.404Z,10.45
2023-05-19T12:40:44.228Z,11.25
2023-05-19T12:45:45.908Z,11.20
2023-05-19T12:50:47.440Z,12.23
2023-05-19T12:55:52.843Z,14.30
2023-05-19T13:00:59.819Z,14.40
2023-05-19T13:06:01.447Z,15.80
2023-05-19T13:11:02.939Z,14.65
2023-05-19T13:16:04.779Z,16.15
2023-05-19T13:21:06.307Z,17.23
2023-05-19T13:26:07.839Z,16.30
2023-05-19T13:31:09.342Z,15.57
2023-05-19T13:36:10.868Z,16.23
2023-05-19T13:41:13.789Z,17.48
2023-05-19T13:46:16.010Z,16.90
2023-05-19T13:51:17.536Z,17.45
2023-05-19T13:56:19.028Z,16.10
2023-05-19T14:01:20.536Z,18.95
2023-05-19T14:06:22.135Z,18.63
2023-05-19T14:11:23.690Z,17.65
2023-05-19T14:16:26.483Z,21.42
2023-05-19T14:21:27.967Z,16.17
2023-05-19T14:26:29.558Z,14.30
2023-05-19T14:31:32.631Z,18.13
2023-05-19T14:36:35.169Z,18.75
2023-05-19T14:41:36.740Z,14.98
2023-05-19T14:46:38.258Z,22.20
2023-05-19T14:51:39.874Z,19.50
2023-05-19T14:56:41.339Z,20.77
2023-05-19T15:01:42.955Z,19.45
2023-05-19T15:06:46.349Z,22.80
2023-05-19T15:11:49.583Z,24.02
2023-05-19T15:16:51.083Z,22.30
2023-05-19T15:21:52.549Z,21.65
2023-05-19T15:26:55.376Z,23.48
2023-05-19T15:31:58.113Z,20.75
2023-05-19T15:36:59.638Z,20.52
2023-05-19T15:42:01.286Z,26.67
2023-05-19T15:47:03.161Z,24.50
2023-05-19T15:52:04.895Z,24.40
2023-05-19T15:57:06.381Z,19.30
2023-05-19T16:02:08.425Z,24.10
2023-05-19T16:07:09.922Z,22.67
2023-05-19T16:12:11.409Z,23.02
2023-05-19T16:17:13.869Z,20.55
2023-05-19T16:22:15.840Z,18.27
2023-05-19T16:27:17.345Z,20.98
2023-05-19T16:32:18.943Z,19.00
2023-05-19T16:37:20.607Z,18.65
2023-05-19T16:42:22.699Z,16.27
2023-05-19T16:47:24.177Z,16.55
2023-05-19T16:52:25.734Z,18.13
2023-05-19T16:57:27.298Z,16.58
2023-05-19T17:02:28.940Z,18.63
2023-05-19T17:07:30.493Z,18.92
2023-05-19T17:12:31.989Z,15.18
2023-05-19T17:17:33.482Z,21.45
2023-05-19T17:22:34.996Z,18.75
2023-05-19T17:27:36.488Z,14.77
2023-05-19T17:32:39.431Z,18.48
2023-05-19T17:37:41.772Z,16.08
2023-05-19T17:42:43.414Z,14.48
2023-05-19T17:47:44.945Z,19.17
2023-05-19T17:52:46.753Z,17.67
2023-05-19T17:57:49.056Z,14.27
2023-05-19T18:02:51.103Z,20.50
2023-05-19T18:07:53.937Z,20.52
2023-05-19T18:12:55.462Z,22.27
2023-05-19T18:17:57.137Z,19.40
2023-05-19T18:22:58.727Z,20.75
2023-05-19T18:28:00.352Z,22.27
2023-05-19T18:33:03.747Z,22.38
2023-05-19T18:38:05.692Z,22.88
2023-05-19T18:43:07.184Z,19.52
2023-05-19T18:48:08.910Z,20.83
2023-05-19T18:53:11.798Z,19.98
2023-05-19T18:58:13.248Z,21.60
2023-05-19T19:03:15.363Z,20.77
2023-05-19T19:08:17.403Z,21.85
2023-05-19T19:13:19.058Z,20.02
2023-05-19T19:18:20.550Z,16.60
2023-05-19T19:23:22.023Z,19.65
2023-05-19T19:28:23.938Z,18.40
2023-05-19T19:33:25.472Z,18.98
2023-05-19T19:38:26.944Z,19.88
2023-05-19T19:43:28.423Z,20.73
2023-05-19T19:48:30.464Z,20.40
2023-05-19T19:53:31.996Z,20.30
2023-05-19T19:58:33.486Z,20.38
2023-05-19T20:03:35.592Z,19.45
2023-05-19T20:08:37.504Z,18.50
2023-05-19T20:13:38.990Z,23.15
2023-05-19T20:18:40.629Z,23.05
2023-05-19T20:23:42.192Z,23.35
2023-05-19T20:28:43.754Z,22.38
2023-05-19T20:33:45.217Z,22.33
2023-05-19T20:38:47.931Z,22.42
2023-05-19T20:43:49.513Z,25.73
2023-05-19T20:48:51.209Z,26.27
2023-05-19T20:53:53.145Z,23.60
2023-05-19T20:58:54.652Z,23.55
2023-05-19T21:03:57.222Z,20.20
2023-05-19T21:08:58.723Z,22.88
2023-05-19T21:14:06.219Z,23.48
2023-05-19T21:19:07.878Z,25.42
2023-05-19T21:24:09.929Z,25.75
2023-05-19T21:29:11.413Z,25.38
2023-05-19T21:34:12.911Z,22.15
2023-05-19T21:39:14.415Z,23.98
2023-05-19T21:44:15.868Z,25.95
2023-05-19T21:49:17.346Z,27.27
2023-05-19T21:54:18.785Z,26.02
2023-05-19T21:59:23.175Z,27.00
2023-05-19T22:04:24.671Z,25.10
2023-05-19T22:09:26.655Z,27.33
2023-05-19T22:14:28.095Z,25.27
2023-05-19T22:19:29.746Z,28.88
2023-05-19T22:24:31.337Z,27.77
2023-05-19T22:29:32.953Z,25.77
2023-05-19T22:34:34.435Z,27.98
2023-05-19T22:39:36.354Z,26.45
2023-05-19T22:44:37.829Z,26.48
2023-05-19T22:49:42.837Z,27.20
2023-05-19T22:54:44.403Z,30.45
2023-05-19T22:59:45.988Z,31.38
2023-05-19T23:04:47.422Z,26.60
2023-05-19T23:09:48.967Z,22.10
2023-05-19T23:14:50.953Z,27.50
2023-05-19T23:19:52.514Z,27.00
2023-05-19T23:24:53.983Z,27.17
2023-05-19T23:29:55.790Z,24.73
2023-05-19T23:35:00.432Z,28.63
2023-05-19T23:40:01.926Z,25.13
2023-05-19T23:45:03.997Z,23.50
2023-05-19T23:50:05.772Z,23.75
2023-05-19T23:55:08.064Z,22.15
